Nearby METAR Reports

 

KSJC - San Jose, California, USA
Distance from station: NE 14km
Actualización: 17/04/2021 06:53
Despejado
Despejado
 Viento del NO
Viento: NO 9 km/h
Temperatura: 10°C
Temp.Sensacion: 9°C
Rocío: 7°C
Humedad: 82%
Barómetro: 1017.6 hPa
Clouds: Despejado
Visibilidad: 16 km
2021/04/17 04:53 KSJC 170453Z 32005KT 10SM CLR 10/07 A3005 RMK AO2 SLP176 T01000072
KNUQ - Moffett Nas/Mtn, California, USA
Distance from station: N 14km
Actualización: 14/04/2021 00:40
NOT Current

 
2021/04/13 22:40 KNUQ 132240Z AUTO RMK AO2 PNO PWINO TSNO
 
KPAO - Palo Alto, California, USA
Distance from station: NNO 23km
Actualización: 17/04/2021 05:47
NOT Current
Despejado
Despejado
 Viento del NNO
Viento: NNO 11 km/h
Temperatura: 10°C
Temp.Sensacion: 8°C
Rocío: 7°C
Humedad: 82%
Barómetro: 1017.3 hPa
Clouds: Despejado
Visibilidad: 16 km
2021/04/17 03:47 KPAO 170347Z 33006KT 10SM SKC 10/07 A3004 RMK LAST
KRHV - San Jose/Reid, California, USA
Distance from station: ENE 19km
Actualización: 17/04/2021 06:47
Despejado
Despejado
 Viento del ONO
Viento: ONO 7 km/h
Temperatura: 11°C
Rocío: 8°C
Humedad: 82%
Barómetro: 1017.9 hPa
Clouds: Despejado
Visibilidad: 16 km
2021/04/17 04:47 KRHV 170447Z 30004KT 10SM SKC 11/08 A3006 RMK LAST
 
KOAK - Oakland, California, USA
Distance from station: NNO 50km
Actualización: 17/04/2021 06:53
Muy nuboso
Muy nuboso
 Viento del O
Viento: O 20 km/h
Temperatura: 11°C
Rocío: 7°C
Humedad: 77%
Barómetro: 1017.9 hPa
Clouds: Muy nuboso
Visibilidad: 16 km
Cloud details: Muy nuboso 305 m
2021/04/17 04:53 KOAK 170453Z 27011KT 10SM BKN010 11/07 A3006 RMK AO2 SLP177 T01060072
KSQL - San Carlos Airpo, California, USA
Distance from station: NO 34km
Actualización: 17/04/2021 07:15
Despejado
Despejado
 Viento del NO
Viento: NO 15 km/h
Temperatura: 11°C
Rocío: 6°C
Humedad: 72%
Barómetro: 1017.9 hPa
Clouds: Despejado
Visibilidad: 16 km
2021/04/17 05:15 KSQL 170515Z AUTO 31008KT 10SM CLR 11/06 A3006 RMK AO2
 
KSFO - San Francisco, California, USA
Distance from station: NO 49km
Actualización: 17/04/2021 06:56
Parcialmente nuboso
Parcialmente nuboso
 Viento del ONO
Viento: ONO 28 km/h
Temperatura: 11°C
Rocío: 7°C
Humedad: 77%
Barómetro: 1017.6 hPa
Clouds: Parcialmente nuboso
Visibilidad: 16 km
Cloud details: Few Clouds 152 m
Parcialmente nuboso 335 m
2021/04/17 04:56 KSFO 170456Z 29015KT 10SM FEW005 SCT011 11/07 A3005 RMK AO2 SLP175 T01060067
KE16 - San Martin, California, USA
Distance from station: ESE 43km
Actualización: 17/04/2021 07:15
Despejado
Despejado
 Viento del NNO
Viento: NNO 11 km/h
Temperatura: 12°C
Rocío: 7°C
Humedad: 72%
Barómetro: 1017.9 hPa
Clouds: Despejado
Visibilidad: 16 km
2021/04/17 05:15 KE16 170515Z AUTO 34006KT 10SM CLR 12/07 A3006 RMK AO2 PWINO PNO
 
KWVI - Watsonville, California, USA
Distance from station: SSE 44km
Actualización: 17/04/2021 06:53
Cubierto
Cubierto
 Viento del E
Viento: E 9 km/h
Temperatura: 10°C
Temp.Sensacion: 9°C
Rocío: 8°C
Humedad: 88%
Barómetro: 1017.9 hPa
Clouds: Cubierto
Visibilidad: 16 km
Cloud details: Cubierto 274 m
2021/04/17 04:53 KWVI 170453Z AUTO 08005KT 10SM OVC009 10/08 A3006 RMK AO2 SLP178 T01000078
KHAF - Half Moon Bay, California, USA
Distance from station: ONO 50km
Actualización: 17/04/2021 07:15
Mist, Cubierto
Mist, Cubierto
 Viento del NO
Viento: NO 19 km/h
Temperatura: 9°C
Temp.Sensacion: 6°C
Rocío: 7°C
Humedad: 87%
Barómetro: 1018.6 hPa
Resumen: Mist
Clouds: Cubierto
Visibilidad: 8 km
Cloud details: Cubierto 305 m
2021/04/17 05:15 KHAF 170515Z AUTO 31010KT 5SM BR OVC010 09/07 A3008 RMK AO2
 
KHWD - Hayward, California, USA
Distance from station: N 44km
Actualización: 17/04/2021 06:54
Cubierto
Cubierto
 Viento del ONO
Viento: ONO 9 km/h
Temperatura: 11°C
Rocío: 7°C
Humedad: 77%
Barómetro: 1017.6 hPa
Clouds: Cubierto
Visibilidad: 16 km
Cloud details: Cubierto 366 m
2021/04/17 04:54 KHWD 170454Z AUTO 30005KT 10SM OVC012 11/07 A3005 RMK AO2 SLP186 T01060072
KLVK - Livermore, California, USA
Distance from station: NNE 51km
Actualización: 17/04/2021 06:53
Despejado
Despejado
 Viento del ONO
Viento: ONO 17 km/h
Temperatura: 10°C
Temp.Sensacion: 8°C
Rocío: 7°C
Humedad: 82%
Barómetro: 1016.6 hPa
Clouds: Despejado
Visibilidad: 16 km
2021/04/17 04:53 KLVK 170453Z 29009KT 10SM CLR 10/07 A3002 RMK AO2 SLP165 T01000067